sensor_id;sensor_type;location;lat;lon;timestamp;pressure;altitude;pressure_sealevel;temperature;humidity
46291;BME280;32023;44.444;26.006;2023-01-27T00:01:45;100192.84;;;1.21;nan
46291;BME280;32023;44.444;26.006;2023-01-27T00:04:15;100210.63;;;1.24;nan
46291;BME280;32023;44.444;26.006;2023-01-27T00:06:41;100218.09;;;1.22;nan
46291;BME280;32023;44.444;26.006;2023-01-27T00:09:10;100204.75;;;1.20;nan
46291;BME280;32023;44.444;26.006;2023-01-27T00:11:39;100199.97;;;1.22;nan
46291;BME280;32023;44.444;26.006;2023-01-27T00:14:24;100202.25;;;1.19;nan
46291;BME280;32023;44.444;26.006;2023-01-27T00:16:53;100198.91;;;1.17;nan
46291;BME280;32023;44.444;26.006;2023-01-27T00:19:20;100194.69;;;1.08;nan
46291;BME280;32023;44.444;26.006;2023-01-27T00:21:47;100196.16;;;1.10;nan
46291;BME280;32023;44.444;26.006;2023-01-27T00:24:32;100213.25;;;1.11;nan
46291;BME280;32023;44.444;26.006;2023-01-27T00:27:05;100194.94;;;1.13;nan
46291;BME280;32023;44.444;26.006;2023-01-27T00:29:36;100198.69;;;1.12;nan
46291;BME280;32023;44.444;26.006;2023-01-27T00:32:03;100188.84;;;1.04;nan
46291;BME280;32023;44.444;26.006;2023-01-27T00:34:48;100190.72;;;1.04;nan
46291;BME280;32023;44.444;26.006;2023-01-27T00:37:15;100188.19;;;1.02;nan
46291;BME280;32023;44.444;26.006;2023-01-27T00:39:41;100202.81;;;1.01;nan
46291;BME280;32023;44.444;26.006;2023-01-27T00:42:08;100213.44;;;1.03;nan
46291;BME280;32023;44.444;26.006;2023-01-27T00:44:34;100205.31;;;1.03;nan
46291;BME280;32023;44.444;26.006;2023-01-27T00:47:00;100208.66;;;0.98;nan
46291;BME280;32023;44.444;26.006;2023-01-27T00:49:26;100187.34;;;0.95;nan
46291;BME280;32023;44.444;26.006;2023-01-27T00:51:53;100181.47;;;0.91;nan
46291;BME280;32023;44.444;26.006;2023-01-27T00:54:20;100182.91;;;0.87;nan
46291;BME280;32023;44.444;26.006;2023-01-27T00:56:46;100173.13;;;0.86;nan
46291;BME280;32023;44.444;26.006;2023-01-27T00:59:13;100181.06;;;0.88;nan
46291;BME280;32023;44.444;26.006;2023-01-27T01:01:39;100173.34;;;0.85;nan
46291;BME280;32023;44.444;26.006;2023-01-27T01:04:06;100164.34;;;0.84;nan
46291;BME280;32023;44.444;26.006;2023-01-27T01:06:32;100149.13;;;0.83;nan
46291;BME280;32023;44.444;26.006;2023-01-27T01:08:58;100149.13;;;0.83;nan
46291;BME280;32023;44.444;26.006;2023-01-27T01:11:25;100143.09;;;0.81;nan
46291;BME280;32023;44.444;26.006;2023-01-27T01:13:51;100141.81;;;0.77;nan
46291;BME280;32023;44.444;26.006;2023-01-27T01:16:22;100125.97;;;0.74;nan
46291;BME280;32023;44.444;26.006;2023-01-27T01:18:49;100117.19;;;0.72;nan
46291;BME280;32023;44.444;26.006;2023-01-27T01:21:16;100123.84;;;0.70;nan
46291;BME280;32023;44.444;26.006;2023-01-27T01:23:44;100108.44;;;0.70;nan
46291;BME280;32023;44.444;26.006;2023-01-27T01:26:13;100123.03;;;0.69;nan
46291;BME280;32023;44.444;26.006;2023-01-27T01:28:40;100114.69;;;0.71;nan
46291;BME280;32023;44.444;26.006;2023-01-27T01:31:12;100095.09;;;0.69;nan
46291;BME280;32023;44.444;26.006;2023-01-27T01:33:39;100108.44;;;0.70;nan
46291;BME280;32023;44.444;26.006;2023-01-27T01:36:11;100099.28;;;0.71;nan
46291;BME280;32023;44.444;26.006;2023-01-27T01:38:38;100108.44;;;0.70;nan
46291;BME280;32023;44.444;26.006;2023-01-27T01:41:12;100073.81;;;0.66;nan
46291;BME280;32023;44.444;26.006;2023-01-27T01:43:41;100074.66;;;0.66;nan
46291;BME280;32023;44.444;26.006;2023-01-27T01:46:11;100065.50;;;0.67;nan
46291;BME280;32023;44.444;26.006;2023-01-27T01:48:59;100081.75;;;0.67;nan
46291;BME280;32023;44.444;26.006;2023-01-27T01:51:33;100062.13;;;0.65;nan
46291;BME280;32023;44.444;26.006;2023-01-27T01:54:12;100092.59;;;0.67;nan
46291;BME280;32023;44.444;26.006;2023-01-27T01:56:53;100116.31;;;0.65;nan
46291;BME280;32023;44.444;26.006;2023-01-27T02:02:12;100093.63;;;0.66;nan
46291;BME280;32023;44.444;26.006;2023-01-27T02:04:46;100096.34;;;0.66;nan
46291;BME280;32023;44.444;26.006;2023-01-27T02:10:15;100085.91;;;0.63;nan
46291;BME280;32023;44.444;26.006;2023-01-27T02:12:41;100087.97;;;0.61;nan
46291;BME280;32023;44.444;26.006;2023-01-27T02:15:09;100092.53;;;0.61;nan
46291;BME280;32023;44.444;26.006;2023-01-27T02:17:36;100085.91;;;0.63;nan
46291;BME280;32023;44.444;26.006;2023-01-27T02:20:30;100100.66;;;0.61;nan
46291;BME280;32023;44.444;26.006;2023-01-27T02:25:57;100117.16;;;0.66;nan
46291;BME280;32023;44.444;26.006;2023-01-27T02:28:28;100107.34;;;0.65;nan
46291;BME280;32023;44.444;26.006;2023-01-27T02:30:55;100093.44;;;0.68;nan
46291;BME280;32023;44.444;26.006;2023-01-27T02:33:21;100083.03;;;0.71;nan
46291;BME280;32023;44.444;26.006;2023-01-27T02:36:01;100092.19;;;0.70;nan
46291;BME280;32023;44.444;26.006;2023-01-27T02:38:49;100079.66;;;0.69;nan
46291;BME280;32023;44.444;26.006;2023-01-27T02:41:24;100060.09;;;0.67;nan
46291;BME280;32023;44.444;26.006;2023-01-27T02:43:51;100061.72;;;0.68;nan
46291;BME280;32023;44.444;26.006;2023-01-27T02:46:18;100069.25;;;0.66;nan
46291;BME280;32023;44.444;26.006;2023-01-27T02:48:44;100065.50;;;0.67;nan
46291;BME280;32023;44.444;26.006;2023-01-27T02:51:11;100045.47;;;0.68;nan
46291;BME280;32023;44.444;26.006;2023-01-27T02:53:40;100053.19;;;0.65;nan
46291;BME280;32023;44.444;26.006;2023-01-27T02:56:07;100056.09;;;0.63;nan
46291;BME280;32023;44.444;26.006;2023-01-27T02:58:33;100062.75;;;0.61;nan
46291;BME280;32023;44.444;26.006;2023-01-27T03:01:00;100052.31;;;0.58;nan
46291;BME280;32023;44.444;26.006;2023-01-27T03:03:26;100055.44;;;0.55;nan
46291;BME280;32023;44.444;26.006;2023-01-27T03:05:54;100050.03;;;0.55;nan
46291;BME280;32023;44.444;26.006;2023-01-27T03:08:21;100043.75;;;0.54;nan
46291;BME280;32023;44.444;26.006;2023-01-27T03:10:52;100048.78;;;0.57;nan
46291;BME280;32023;44.444;26.006;2023-01-27T03:13:22;100055.44;;;0.55;nan
46291;BME280;32023;44.444;26.006;2023-01-27T03:15:49;100050.22;;;0.53;nan
46291;BME280;32023;44.444;26.006;2023-01-27T03:18:35;100060.03;;;0.54;nan
46291;BME280;32023;44.444;26.006;2023-01-27T03:21:04;100054.59;;;0.54;nan
46291;BME280;32023;44.444;26.006;2023-01-27T03:23:31;100047.13;;;0.56;nan
46291;BME280;32023;44.444;26.006;2023-01-27T03:26:01;100044.00;;;0.59;nan
46291;BME280;32023;44.444;26.006;2023-01-27T03:28:30;100038.34;;;0.54;nan
46291;BME280;32023;44.444;26.006;2023-01-27T03:31:05;100051.91;;;0.54;nan
46291;BME280;32023;44.444;26.006;2023-01-27T03:33:32;100031.03;;;0.48;nan
46291;BME280;32023;44.444;26.006;2023-01-27T03:36:01;100028.34;;;0.48;nan
46291;BME280;32023;44.444;26.006;2023-01-27T03:38:45;100032.06;;;0.47;nan
46291;BME280;32023;44.444;26.006;2023-01-27T03:41:30;100035.81;;;0.46;nan
46291;BME280;32023;44.444;26.006;2023-01-27T03:44:15;100029.78;;;0.44;nan
46291;BME280;32023;44.444;26.006;2023-01-27T03:47:00;100031.63;;;0.37;nan
46291;BME280;32023;44.444;26.006;2023-01-27T03:49:26;100021.22;;;0.34;nan
46291;BME280;32023;44.444;26.006;2023-01-27T03:51:52;100006.59;;;0.35;nan
46291;BME280;32023;44.444;26.006;2023-01-27T03:54:19;100021.63;;;0.37;nan
46291;BME280;32023;44.444;26.006;2023-01-27T03:56:45;100021.63;;;0.37;nan
46291;BME280;32023;44.444;26.006;2023-01-27T03:59:13;100006.19;;;0.38;nan
46291;BME280;32023;44.444;26.006;2023-01-27T04:01:39;100009.56;;;0.40;nan
46291;BME280;32023;44.444;26.006;2023-01-27T04:04:05;100007.88;;;0.39;nan
46291;BME280;32023;44.444;26.006;2023-01-27T04:06:50;100014.31;;;0.38;nan
46291;BME280;32023;44.444;26.006;2023-01-27T04:09:30;100020.78;;;0.37;nan
46291;BME280;32023;44.444;26.006;2023-01-27T04:11:59;100007.88;;;0.39;nan
46291;BME280;32023;44.444;26.006;2023-01-27T04:14:30;100019.97;;;0.43;nan
46291;BME280;32023;44.444;26.006;2023-01-27T04:17:01;100031.47;;;0.45;nan
46291;BME280;32023;44.444;26.006;2023-01-27T04:19:28;100007.09;;;0.45;nan
46291;BME280;32023;44.444;26.006;2023-01-27T04:21:55;100005.19;;;0.45;nan
46291;BME280;32023;44.444;26.006;2023-01-27T04:24:22;100010.81;;;0.44;nan
46291;BME280;32023;44.444;26.006;2023-01-27T04:26:54;100035.38;;;0.42;nan
46291;BME280;32023;44.444;26.006;2023-01-27T04:29:23;100019.97;;;0.43;nan
46291;BME280;32023;44.444;26.006;2023-01-27T04:31:50;100035.78;;;0.39;nan
46291;BME280;32023;44.444;26.006;2023-01-27T04:34:17;100039.97;;;0.42;nan
46291;BME280;32023;44.444;26.006;2023-01-27T04:36:44;100002.47;;;0.39;nan
46291;BME280;32023;44.444;26.006;2023-01-27T04:39:10;100025.81;;;0.40;nan
46291;BME280;32023;44.444;26.006;2023-01-27T04:41:37;100029.75;;;0.37;nan
46291;BME280;32023;44.444;26.006;2023-01-27T04:44:04;100004.97;;;0.40;nan
46291;BME280;32023;44.444;26.006;2023-01-27T04:46:31;100005.81;;;0.41;nan
46291;BME280;32023;44.444;26.006;2023-01-27T04:48:57;100044.16;;;0.44;nan
46291;BME280;32023;44.444;26.006;2023-01-27T04:51:24;100035.81;;;0.46;nan
46291;BME280;32023;44.444;26.006;2023-01-27T04:53:57;100066.00;;;0.43;nan
46291;BME280;32023;44.444;26.006;2023-01-27T04:56:32;100074.97;;;0.37;nan
46291;BME280;32023;44.444;26.006;2023-01-27T04:59:00;100070.56;;;0.36;nan
46291;BME280;32023;44.444;26.006;2023-01-27T05:01:26;100078.69;;;0.36;nan
46291;BME280;32023;44.444;26.006;2023-01-27T05:03:53;100072.03;;;0.38;nan
46291;BME280;32023;44.444;26.006;2023-01-27T05:06:20;100067.88;;;0.36;nan
46291;BME280;32023;44.444;26.006;2023-01-27T05:08:47;100081.59;;;0.34;nan
46291;BME280;32023;44.444;26.006;2023-01-27T05:11:13;100052.03;;;0.33;nan
46291;BME280;32023;44.444;26.006;2023-01-27T05:13:40;100079.09;;;0.33;nan
46291;BME280;32023;44.444;26.006;2023-01-27T05:16:27;100056.59;;;0.32;nan
46291;BME280;32023;44.444;26.006;2023-01-27T05:18:53;100087.22;;;0.33;nan
46291;BME280;32023;44.444;26.006;2023-01-27T05:21:21;100071.16;;;0.31;nan
46291;BME280;32023;44.444;26.006;2023-01-27T05:23:49;100065.75;;;0.31;nan
46291;BME280;32023;44.444;26.006;2023-01-27T05:26:26;100071.97;;;0.25;nan
46291;BME280;32023;44.444;26.006;2023-01-27T05:28:55;100070.72;;;0.21;nan
46291;BME280;32023;44.444;26.006;2023-01-27T05:31:58;100078.63;;;0.23;nan
46291;BME280;32023;44.444;26.006;2023-01-27T05:34:38;100073.41;;;0.21;nan
46291;BME280;32023;44.444;26.006;2023-01-27T05:37:04;100079.44;;;0.23;nan
46291;BME280;32023;44.444;26.006;2023-01-27T05:39:34;100082.38;;;0.22;nan
46291;BME280;32023;44.444;26.006;2023-01-27T05:42:00;100069.69;;;0.22;nan
46291;BME280;32023;44.444;26.006;2023-01-27T05:44:29;100077.81;;;0.22;nan
46291;BME280;32023;44.444;26.006;2023-01-27T05:46:55;100077.16;;;0.20;nan
46291;BME280;32023;44.444;26.006;2023-01-27T05:49:22;100077.75;;;0.16;nan
46291;BME280;32023;44.444;26.006;2023-01-27T05:51:51;100057.56;;;0.18;nan
46291;BME280;32023;44.444;26.006;2023-01-27T05:57:36;100075.69;;;0.18;nan
46291;BME280;32023;44.444;26.006;2023-01-27T06:00:03;100056.09;;;0.16;nan
46291;BME280;32023;44.444;26.006;2023-01-27T06:02:30;100058.78;;;0.16;nan
46291;BME280;32023;44.444;26.006;2023-01-27T06:04:56;100045.88;;;0.11;nan
46291;BME280;32023;44.444;26.006;2023-01-27T06:07:22;100033.16;;;0.12;nan
46291;BME280;32023;44.444;26.006;2023-01-27T06:09:48;100046.31;;;0.15;nan
46291;BME280;32023;44.444;26.006;2023-01-27T06:12:15;100049.66;;;0.17;nan
46291;BME280;32023;44.444;26.006;2023-01-27T06:14:41;100048.63;;;0.18;nan
46291;BME280;32023;44.444;26.006;2023-01-27T06:17:07;100041.09;;;0.13;nan
46291;BME280;32023;44.444;26.006;2023-01-27T06:19:34;100044.63;;;0.14;nan
46291;BME280;32023;44.444;26.006;2023-01-27T06:22:00;100067.97;;;0.15;nan
46291;BME280;32023;44.444;26.006;2023-01-27T06:27:43;100044.41;;;0.15;nan
46291;BME280;32023;44.444;26.006;2023-01-27T06:33:28;100052.31;;;0.10;nan
46291;BME280;32023;44.444;26.006;2023-01-27T06:35:59;100066.44;;;0.06;nan
46291;BME280;32023;44.444;26.006;2023-01-27T06:38:26;100063.13;;;0.04;nan
46291;BME280;32023;44.444;26.006;2023-01-27T06:41:05;100057.72;;;0.04;nan
46291;BME280;32023;44.444;26.006;2023-01-27T06:43:44;100060.59;;;0.02;nan
46291;BME280;32023;44.444;26.006;2023-01-27T06:46:19;100075.81;;;0.03;nan
46291;BME280;32023;44.444;26.006;2023-01-27T06:48:59;100061.88;;;0.06;nan
46291;BME280;32023;44.444;26.006;2023-01-27T06:51:28;100048.78;;;0.10;nan
46291;BME280;32023;44.444;26.006;2023-01-27T06:53:57;100059.59;;;0.10;nan
46291;BME280;32023;44.444;26.006;2023-01-27T06:56:46;100038.97;;;0.09;nan
46291;BME280;32023;44.444;26.006;2023-01-27T06:59:13;100057.75;;;0.10;nan
46291;BME280;32023;44.444;26.006;2023-01-27T07:05:04;100059.59;;;0.10;nan
46291;BME280;32023;44.444;26.006;2023-01-27T07:07:57;100040.25;;;0.13;nan
46291;BME280;32023;44.444;26.006;2023-01-27T07:10:44;100048.38;;;0.13;nan
46291;BME280;32023;44.444;26.006;2023-01-27T07:13:12;100053.59;;;0.14;nan
46291;BME280;32023;44.444;26.006;2023-01-27T07:15:39;100035.88;;;0.12;nan
46291;BME280;32023;44.444;26.006;2023-01-27T07:18:06;100033.16;;;0.12;nan
46291;BME280;32023;44.444;26.006;2023-01-27T07:20:33;100022.97;;;0.14;nan
46291;BME280;32023;44.444;26.006;2023-01-27T07:23:01;100026.72;;;0.13;nan
46291;BME280;32023;44.444;26.006;2023-01-27T07:25:28;100004.44;;;0.11;nan
46291;BME280;32023;44.444;26.006;2023-01-27T07:28:00;100011.94;;;0.15;nan
46291;BME280;32023;44.444;26.006;2023-01-27T07:30:27;100005.72;;;0.15;nan
46291;BME280;32023;44.444;26.006;2023-01-27T07:32:53;100013.44;;;0.18;nan
46291;BME280;32023;44.444;26.006;2023-01-27T07:35:21;100013.63;;;0.16;nan
46291;BME280;32023;44.444;26.006;2023-01-27T07:37:47;100011.13;;;0.15;nan
46291;BME280;32023;44.444;26.006;2023-01-27T07:40:17;100004.66;;;0.16;nan
46291;BME280;32023;44.444;26.006;2023-01-27T07:42:49;100004.91;;;0.21;nan
46291;BME280;32023;44.444;26.006;2023-01-27T07:49:05;100015.31;;;0.24;nan
46291;BME280;32023;44.444;26.006;2023-01-27T07:51:42;100021.75;;;0.23;nan
46291;BME280;32023;44.444;26.006;2023-01-27T07:54:09;100018.25;;;0.22;nan
46291;BME280;32023;44.444;26.006;2023-01-27T07:56:38;100019.88;;;0.23;nan
46291;BME280;32023;44.444;26.006;2023-01-27T07:59:04;99993.66;;;0.24;nan
46291;BME280;32023;44.444;26.006;2023-01-27T08:01:33;99996.78;;;0.21;nan
46291;BME280;32023;44.444;26.006;2023-01-27T08:04:00;100009.47;;;0.20;nan
46291;BME280;32023;44.444;26.006;2023-01-27T08:06:41;100015.72;;;0.21;nan
46291;BME280;32023;44.444;26.006;2023-01-27T08:09:43;99987.81;;;0.20;nan
46291;BME280;32023;44.444;26.006;2023-01-27T08:12:20;100004.47;;;0.24;nan
46291;BME280;32023;44.444;26.006;2023-01-27T08:14:55;99995.75;;;0.22;nan
46291;BME280;32023;44.444;26.006;2023-01-27T08:22:07;100011.56;;;0.25;nan
46291;BME280;32023;44.444;26.006;2023-01-27T08:25:07;99981.19;;;0.29;nan
46291;BME280;32023;44.444;26.006;2023-01-27T08:27:42;100000.34;;;0.28;nan
46291;BME280;32023;44.444;26.006;2023-01-27T08:36:43;99990.00;;;0.44;nan
46291;BME280;32023;44.444;26.006;2023-01-27T08:39:10;99975.19;;;0.47;nan
46291;BME280;32023;44.444;26.006;2023-01-27T08:55:21;99985.25;;;0.60;nan
46291;BME280;32023;44.444;26.006;2023-01-27T08:57:53;99959.00;;;0.60;nan
46291;BME280;32023;44.444;26.006;2023-01-27T09:11:45;99940.03;;;0.67;nan
46291;BME280;32023;44.444;26.006;2023-01-27T09:14:44;99938.78;;;0.69;nan
46291;BME280;32023;44.444;26.006;2023-01-27T09:24:32;99937.75;;;0.70;nan
46291;BME280;32023;44.444;26.006;2023-01-27T09:38:17;99926.25;;;0.68;nan
46291;BME280;32023;44.444;26.006;2023-01-27T10:10:51;99872.31;;;0.67;nan
46291;BME280;32023;44.444;26.006;2023-01-27T10:28:22;99836.66;;;0.63;nan
46291;BME280;32023;44.444;26.006;2023-01-27T10:31:08;99842.06;;;0.70;nan
46291;BME280;32023;44.444;26.006;2023-01-27T10:33:51;99831.44;;;0.68;nan
46291;BME280;32023;44.444;26.006;2023-01-27T10:36:33;99844.38;;;0.66;nan
46291;BME280;32023;44.444;26.006;2023-01-27T10:47:56;99805.41;;;0.67;nan
46291;BME280;32023;44.444;26.006;2023-01-27T10:50:29;99784.34;;;0.69;nan
46291;BME280;32023;44.444;26.006;2023-01-27T10:53:16;99795.19;;;0.69;nan
46291;BME280;32023;44.444;26.006;2023-01-27T10:55:53;99792.69;;;0.68;nan
46291;BME280;32023;44.444;26.006;2023-01-27T11:00:59;99787.69;;;0.71;nan
46291;BME280;32023;44.444;26.006;2023-01-27T11:03:53;99742.66;;;0.70;nan
46291;BME280;32023;44.444;26.006;2023-01-27T11:06:24;99777.03;;;0.76;nan
46291;BME280;32023;44.444;26.006;2023-01-27T11:09:20;99769.53;;;0.78;nan
46291;BME280;32023;44.444;26.006;2023-01-27T11:11:50;99782.44;;;0.76;nan
46291;BME280;32023;44.444;26.006;2023-01-27T11:21:47;99772.03;;;0.80;nan
46291;BME280;32023;44.444;26.006;2023-01-27T11:24:49;99760.78;;;0.83;nan
46291;BME280;32023;44.444;26.006;2023-01-27T11:27:26;99763.91;;;0.86;nan
46291;BME280;32023;44.444;26.006;2023-01-27T11:30:35;99763.66;;;0.88;nan
46291;BME280;32023;44.444;26.006;2023-01-27T11:40:35;99770.97;;;0.87;nan
46291;BME280;32023;44.444;26.006;2023-01-27T11:47:01;99739.91;;;0.83;nan
46291;BME280;32023;44.444;26.006;2023-01-27T11:57:29;99749.28;;;0.94;nan
46291;BME280;32023;44.444;26.006;2023-01-27T12:10:51;99728.00;;;0.98;nan
46291;BME280;32023;44.444;26.006;2023-01-27T12:17:18;99747.00;;;0.98;nan
46291;BME280;32023;44.444;26.006;2023-01-27T12:26:58;99732.19;;;0.93;nan
46291;BME280;32023;44.444;26.006;2023-01-27T12:33:18;99710.69;;;0.98;nan
46291;BME280;32023;44.444;26.006;2023-01-27T12:35:48;99743.22;;;0.98;nan
46291;BME280;32023;44.444;26.006;2023-01-27T12:38:23;99733.44;;;0.98;nan
46291;BME280;32023;44.444;26.006;2023-01-27T12:41:01;99735.31;;;0.97;nan
46291;BME280;32023;44.444;26.006;2023-01-27T12:43:29;99739.03;;;1.03;nan
46291;BME280;32023;44.444;26.006;2023-01-27T12:48:46;99738.00;;;1.04;nan
46291;BME280;32023;44.444;26.006;2023-01-27T12:51:18;99756.53;;;1.07;nan
46291;BME280;32023;44.444;26.006;2023-01-27T12:53:48;99753.22;;;1.05;nan
46291;BME280;32023;44.444;26.006;2023-01-27T12:58:58;99737.19;;;0.96;nan
46291;BME280;32023;44.444;26.006;2023-01-27T13:01:34;99738.22;;;0.95;nan
46291;BME280;32023;44.444;26.006;2023-01-27T13:04:22;99733.84;;;0.94;nan
46291;BME280;32023;44.444;26.006;2023-01-27T13:07:29;99734.91;;;0.87;nan
46291;BME280;32023;44.444;26.006;2023-01-27T13:10:01;99724.91;;;0.87;nan
46291;BME280;32023;44.444;26.006;2023-01-27T13:12:48;99720.31;;;0.88;nan
46291;BME280;32023;44.444;26.006;2023-01-27T13:15:21;99736.81;;;0.86;nan
46291;BME280;32023;44.444;26.006;2023-01-27T13:18:21;99734.91;;;0.87;nan
46291;BME280;32023;44.444;26.006;2023-01-27T13:24:16;99740.53;;;0.85;nan
46291;BME280;32023;44.444;26.006;2023-01-27T13:27:04;99727.84;;;0.86;nan
46291;BME280;32023;44.444;26.006;2023-01-27T13:29:50;99741.16;;;0.87;nan
46291;BME280;32023;44.444;26.006;2023-01-27T13:32:33;99731.38;;;0.86;nan
46291;BME280;32023;44.444;26.006;2023-01-27T13:41:07;99733.66;;;0.89;nan
46291;BME280;32023;44.444;26.006;2023-01-27T13:47:03;99668.72;;;0.63;nan
46291;BME280;32023;44.444;26.006;2023-01-27T13:53:21;99742.22;;;0.86;nan
46291;BME280;32023;44.444;26.006;2023-01-27T13:58:24;99730.34;;;0.81;nan
46291;BME280;32023;44.444;26.006;2023-01-27T14:03:42;99728.88;;;0.85;nan
46291;BME280;32023;44.444;26.006;2023-01-27T14:15:02;99718.63;;;0.87;nan
46291;BME280;32023;44.444;26.006;2023-01-27T14:17:58;99703.22;;;0.87;nan
46291;BME280;32023;44.444;26.006;2023-01-27T14:20:34;99723.44;;;0.85;nan
46291;BME280;32023;44.444;26.006;2023-01-27T14:34:31;99719.69;;;0.79;nan
46291;BME280;32023;44.444;26.006;2023-01-27T14:37:30;99728.66;;;0.80;nan
46291;BME280;32023;44.444;26.006;2023-01-27T14:40:14;99714.91;;;0.81;nan
46291;BME280;32023;44.444;26.006;2023-01-27T14:51:23;99714.72;;;0.83;nan
46291;BME280;32023;44.444;26.006;2023-01-27T15:47:31;99741.19;;;0.74;nan
46291;BME280;32023;44.444;26.006;2023-01-27T15:54:35;99740.38;;;0.67;nan
46291;BME280;32023;44.444;26.006;2023-01-27T16:08:19;99720.19;;;0.63;nan
46291;BME280;32023;44.444;26.006;2023-01-27T16:10:46;99727.88;;;0.66;nan
46291;BME280;32023;44.444;26.006;2023-01-27T16:13:33;99722.88;;;0.70;nan
46291;BME280;32023;44.444;26.006;2023-01-27T16:19:21;99737.06;;;0.72;nan
46291;BME280;32023;44.444;26.006;2023-01-27T16:22:30;99731.19;;;0.75;nan
46291;BME280;32023;44.444;26.006;2023-01-27T16:46:41;99710.59;;;0.67;nan
46291;BME280;32023;44.444;26.006;2023-01-27T16:49:42;99729.53;;;0.61;nan
46291;BME280;32023;44.444;26.006;2023-01-27T16:52:45;99712.88;;;0.64;nan
46291;BME280;32023;44.444;26.006;2023-01-27T16:55:26;99734.56;;;0.64;nan
46291;BME280;32023;44.444;26.006;2023-01-27T16:58:03;99729.16;;;0.64;nan
46291;BME280;32023;44.444;26.006;2023-01-27T17:04:27;99718.31;;;0.64;nan
46291;BME280;32023;44.444;26.006;2023-01-27T17:07:10;99731.22;;;0.62;nan
46291;BME280;32023;44.444;26.006;2023-01-27T17:10:07;99757.25;;;0.63;nan
46291;BME280;32023;44.444;26.006;2023-01-27T17:25:38;99737.47;;;0.56;nan
46291;BME280;32023;44.444;26.006;2023-01-27T17:28:20;99740.19;;;0.56;nan
46291;BME280;32023;44.444;26.006;2023-01-27T17:30:48;99750.81;;;0.57;nan
46291;BME280;32023;44.444;26.006;2023-01-27T17:37:17;99764.78;;;0.54;nan
46291;BME280;32023;44.444;26.006;2023-01-27T17:44:29;99748.53;;;0.54;nan
46291;BME280;32023;44.444;26.006;2023-01-27T17:54:34;99760.41;;;0.60;nan
46291;BME280;32023;44.444;26.006;2023-01-27T18:03:58;99772.69;;;0.62;nan
46291;BME280;32023;44.444;26.006;2023-01-27T18:06:27;99772.47;;;0.57;nan
46291;BME280;32023;44.444;26.006;2023-01-27T18:09:12;99769.56;;;0.59;nan
46291;BME280;32023;44.444;26.006;2023-01-27T18:12:00;99771.00;;;0.61;nan
46291;BME280;32023;44.444;26.006;2023-01-27T18:14:32;99769.97;;;0.62;nan
46291;BME280;32023;44.444;26.006;2023-01-27T18:17:20;99759.97;;;0.63;nan
46291;BME280;32023;44.444;26.006;2023-01-27T18:19:57;99771.22;;;0.66;nan
46291;BME280;32023;44.444;26.006;2023-01-27T18:22:57;99765.19;;;0.64;nan
46291;BME280;32023;44.444;26.006;2023-01-27T18:33:07;99772.06;;;0.67;nan
46291;BME280;32023;44.444;26.006;2023-01-27T18:46:19;99776.22;;;0.69;nan
46291;BME280;32023;44.444;26.006;2023-01-27T18:48:46;99784.56;;;0.68;nan
46291;BME280;32023;44.444;26.006;2023-01-27T18:51:26;99789.56;;;0.71;nan
46291;BME280;32023;44.444;26.006;2023-01-27T18:54:16;99792.47;;;0.69;nan
46291;BME280;32023;44.444;26.006;2023-01-27T18:56:43;99791.25;;;0.72;nan
46291;BME280;32023;44.444;26.006;2023-01-27T18:59:09;99787.47;;;0.73;nan
46291;BME280;32023;44.444;26.006;2023-01-27T19:05:31;99790.16;;;0.73;nan
46291;BME280;32023;44.444;26.006;2023-01-27T19:08:20;99806.44;;;0.73;nan
46291;BME280;32023;44.444;26.006;2023-01-27T19:11:09;99820.38;;;0.76;nan
46291;BME280;32023;44.444;26.006;2023-01-27T19:13:56;99835.41;;;0.72;nan
46291;BME280;32023;44.444;26.006;2023-01-27T19:16:52;99848.31;;;0.77;nan
46291;BME280;32023;44.444;26.006;2023-01-27T19:19:31;99867.50;;;0.82;nan
46291;BME280;32023;44.444;26.006;2023-01-27T19:22:21;99878.13;;;0.83;nan
46291;BME280;32023;44.444;26.006;2023-01-27T19:28:47;99905.44;;;0.95;nan
46291;BME280;32023;44.444;26.006;2023-01-27T19:42:25;99930.84;;;1.40;nan
46291;BME280;32023;44.444;26.006;2023-01-27T19:45:21;99932.50;;;1.41;nan
46291;BME280;32023;44.444;26.006;2023-01-27T19:48:15;99931.06;;;1.38;nan
46291;BME280;32023;44.444;26.006;2023-01-27T19:50:42;99936.69;;;1.37;nan
46291;BME280;32023;44.444;26.006;2023-01-27T20:14:10;99945.47;;;1.13;nan
46291;BME280;32023;44.444;26.006;2023-01-27T20:16:40;99945.91;;;1.16;nan
46291;BME280;32023;44.444;26.006;2023-01-27T20:19:07;99914.59;;;0.87;nan
46291;BME280;32023;44.444;26.006;2023-01-27T20:21:33;99943.81;;;1.05;nan
46291;BME280;32023;44.444;26.006;2023-01-27T20:24:03;99952.97;;;1.11;nan
46291;BME280;32023;44.444;26.006;2023-01-27T20:26:29;99960.06;;;1.12;nan
46291;BME280;32023;44.444;26.006;2023-01-27T20:28:57;99954.22;;;1.15;nan
46291;BME280;32023;44.444;26.006;2023-01-27T20:31:24;99958.84;;;1.21;nan
46291;BME280;32023;44.444;26.006;2023-01-27T20:33:50;99961.94;;;1.18;nan
46291;BME280;32023;44.444;26.006;2023-01-27T20:36:23;99960.28;;;1.23;nan
46291;BME280;32023;44.444;26.006;2023-01-27T20:38:52;99963.81;;;1.30;nan
46291;BME280;32023;44.444;26.006;2023-01-27T20:41:26;99965.06;;;1.34;nan
46291;BME280;32023;44.444;26.006;2023-01-27T20:43:59;99973.84;;;1.30;nan
46291;BME280;32023;44.444;26.006;2023-01-27T20:46:26;99975.50;;;1.31;nan
46291;BME280;32023;44.444;26.006;2023-01-27T20:48:53;99980.91;;;1.37;nan
46291;BME280;32023;44.444;26.006;2023-01-27T20:51:19;99976.94;;;1.40;nan
46291;BME280;32023;44.444;26.006;2023-01-27T20:53:46;99977.59;;;1.42;nan
46291;BME280;32023;44.444;26.006;2023-01-27T20:56:21;99983.88;;;1.36;nan
46291;BME280;32023;44.444;26.006;2023-01-27T20:58:50;99978.84;;;1.33;nan
46291;BME280;32023;44.444;26.006;2023-01-27T21:01:19;99992.81;;;1.36;nan
46291;BME280;32023;44.444;26.006;2023-01-27T21:03:46;99995.31;;;1.38;nan
46291;BME280;32023;44.444;26.006;2023-01-27T21:06:14;99998.03;;;1.38;nan